Time;durP1;ratioP1;P1;durP2;ratioP2;P2;SDS_P1;SDS_P2;PMS_P1;PMS_P2;Temp;Humidity;BMP_temperature;BMP_pressure;BME280_temperature;BME280_humidity;BME280_pressure;Samples;Min_cycle;Max_cycle;Signal;HPM_P1;HPM_P2
2022/10/23 00:01:16;;;;;;;127.25;17.38;;;;;;;17.03;49.48;100847.56;4951374;28;20058;-76
2022/10/23 00:03:43;;;;;;;95.57;14.63;;;;;;;17.05;49.28;100840.13;4951352;28;20039;-76
2022/10/23 00:06:08;;;;;;;265.83;23.58;;;;;;;17.06;48.91;100847.25;4951642;28;20050;-76
2022/10/23 00:08:34;;;;;;;92.05;16.70;;;;;;;17.08;49.02;100841.66;4951385;28;20479;-76
2022/10/23 00:10:59;;;;;;;162.45;18.05;;;;;;;17.10;48.66;100836.91;4951483;28;20024;-76
2022/10/23 00:13:25;;;;;;;114.63;16.05;;;;;;;17.10;48.39;100840.47;4951269;28;20027;-75
2022/10/23 00:15:50;;;;;;;73.40;12.43;;;;;;;17.11;48.33;100828.59;4952232;28;20031;-75
2022/10/23 00:18:15;;;;;;;35.22;12.13;;;;;;;17.10;47.85;100832.31;4951674;28;20467;-76
2022/10/23 00:20:41;;;;;;;29.08;11.93;;;;;;;17.12;47.48;100833.03;4951040;28;20027;-75
2022/10/23 00:23:06;;;;;;;22.55;10.93;;;;;;;16.91;47.36;100810.81;4951096;28;20038;-76
2022/10/23 00:25:32;;;;;;;29.25;10.55;;;;;;;17.11;47.23;100844.91;4951117;28;20035;-76
2022/10/23 00:27:58;;;;;;;19.95;10.98;;;;;;;17.13;47.25;100826.56;4957924;28;20253;-76
2022/10/23 00:30:24;;;;;;;67.00;13.60;;;;;;;17.13;47.27;100834.72;4958840;28;20064;-76
2022/10/23 00:32:49;;;;;;;47.25;14.60;;;;;;;17.12;47.28;100830.31;4958498;28;20123;-76
2022/10/23 00:35:15;;;;;;;39.40;12.45;;;;;;;17.10;47.42;100832.31;4950801;28;20034;-76
2022/10/23 00:37:40;;;;;;;44.75;13.10;;;;;;;17.09;47.29;100824.34;4950917;28;20031;-77
2022/10/23 00:40:07;;;;;;;38.85;12.13;;;;;;;17.12;47.36;100827.59;4950605;28;20031;-75
2022/10/23 00:42:32;;;;;;;32.03;12.20;;;;;;;17.12;47.10;100813.16;4950570;28;20066;-76
2022/10/23 00:45:12;;;;;;;25.00;11.32;;;;;;;17.16;46.85;100811.78;4951028;28;20479;-76
2022/10/23 00:47:38;;;;;;;31.42;11.15;;;;;;;17.09;46.94;100798.03;4950215;28;20039;-75
2022/10/23 00:50:04;;;;;;;25.85;10.13;;;;;;;17.16;46.99;100811.78;4951031;28;20106;-75
2022/10/23 00:52:29;;;;;;;25.00;9.98;;;;;;;17.15;46.88;100813.69;4953535;28;20027;-75
2022/10/23 00:54:56;;;;;;;21.95;8.88;;;;;;;17.12;46.62;100803.13;4957133;28;20039;-75
2022/10/23 00:57:21;;;;;;;28.95;9.45;;;;;;;17.12;46.58;100805.84;4956808;28;20059;-77
2022/10/23 00:59:47;;;;;;;25.25;9.25;;;;;;;17.14;46.68;100792.94;4957208;28;20498;-76
2022/10/23 01:02:13;;;;;;;27.52;9.85;;;;;;;17.14;46.69;100792.94;4956885;28;20082;-76
2022/10/23 01:04:39;;;;;;;16.40;8.15;;;;;;;17.13;46.44;100791.22;4957281;29;20435;-76
2022/10/23 01:07:24;;;;;;;30.60;10.18;;;;;;;17.08;46.54;100773.72;4957016;28;20122;-76
2022/10/23 01:10:04;;;;;;;20.80;9.00;;;;;;;17.12;46.61;100775.94;4955828;29;20058;-76
2022/10/23 01:12:43;;;;;;;22.92;10.13;;;;;;;17.14;46.42;100782.06;4957051;29;20042;-76
2022/10/23 01:15:25;;;;;;;25.45;10.60;;;;;;;17.14;46.14;100779.34;4956977;28;20019;-76
2022/10/23 01:17:56;;;;;;;18.52;10.00;;;;;;;17.13;46.21;100766.75;4956658;28;20444;-75
2022/10/23 01:20:31;;;;;;;13.52;7.65;;;;;;;17.12;46.33;100770.53;4957004;28;20087;-75
2022/10/23 01:23:03;;;;;;;26.90;9.68;;;;;;;17.09;46.43;100772.72;4956915;29;20031;-75
2022/10/23 01:25:50;;;;;;;31.10;8.63;;;;;;;16.95;46.66;100763.28;4956897;28;20158;-76
2022/10/23 01:28:27;;;;;;;18.63;8.20;;;;;;;17.01;46.69;100778.94;4956761;29;20122;-76
2022/10/23 01:30:56;;;;;;;26.80;9.18;;;;;;;17.01;46.41;100778.09;4956785;28;20054;-76
2022/10/23 01:33:30;;;;;;;22.20;8.45;;;;;;;17.02;46.46;100768.94;4957185;28;20074;-76
2022/10/23 01:36:03;;;;;;;21.50;9.20;;;;;;;17.07;46.14;100791.88;4956920;28;20065;-75
2022/10/23 01:38:43;;;;;;;18.58;8.05;;;;;;;16.94;46.14;100756.13;4956881;29;20057;-75
2022/10/23 01:41:26;;;;;;;24.48;8.45;;;;;;;17.09;46.32;100770.84;4964197;29;20106;-76
2022/10/23 01:44:06;;;;;;;18.55;8.43;;;;;;;17.11;46.20;100766.09;4967721;28;20039;-76
2022/10/23 01:46:34;;;;;;;24.92;7.85;;;;;;;17.13;46.43;100763.19;4962701;29;20387;-76
2022/10/23 01:49:02;;;;;;;38.38;10.00;;;;;;;17.13;46.19;100761.31;4956541;28;20042;-76
2022/10/23 01:51:30;;;;;;;33.75;7.88;;;;;;;17.14;46.35;100757.59;4956605;28;20031;-76
2022/10/23 01:53:59;;;;;;;27.08;10.10;;;;;;;17.14;46.83;100768.47;4956837;29;20027;-79
2022/10/23 01:56:32;;;;;;;35.13;9.68;;;;;;;17.13;46.65;100755.88;4956456;29;20031;-78
2022/10/23 01:59:02;;;;;;;57.55;9.48;;;;;;;16.99;46.46;100731.22;4956446;28;20082;-79
2022/10/23 02:01:29;;;;;;;50.05;10.13;;;;;;;17.09;46.58;100759.97;4956662;29;20035;-77
2022/10/23 02:03:56;;;;;;;41.63;8.93;;;;;;;17.08;46.74;100763.69;4953941;28;20065;-80
2022/10/23 02:06:22;;;;;;;143.48;18.40;;;;;;;17.07;47.12;100761.97;4953204;29;20023;-78
2022/10/23 02:08:48;;;;;;;20.50;8.93;;;;;;;17.06;47.09;100768.44;4952566;29;20035;-78
2022/10/23 02:11:17;;;;;;;24.23;9.93;;;;;;;17.06;47.34;100770.31;4953042;29;20027;-77
2022/10/23 02:13:51;;;;;;;19.88;9.43;;;;;;;17.05;47.25;100769.47;4954269;29;20042;-78
2022/10/23 02:16:29;;;;;;;19.48;9.73;;;;;;;17.00;47.23;100770.97;4954019;29;20182;-77
2022/10/23 02:19:01;;;;;;;29.58;10.55;;;;;;;16.95;47.67;100766.00;4953993;29;20053;-76
2022/10/23 02:21:37;;;;;;;20.92;10.35;;;;;;;16.86;47.72;100764.25;4953930;28;20085;-76
2022/10/23 02:24:14;;;;;;;20.48;9.73;;;;;;;16.85;47.26;100771.56;4954075;28;20031;-77
2022/10/23 02:26:47;;;;;;;29.75;13.88;;;;;;;16.85;47.34;100773.41;4953054;29;20042;-79
2022/10/23 02:29:18;;;;;;;35.47;17.52;;;;;;;16.71;47.21;100744.16;4953944;28;20035;-79
2022/10/23 02:31:44;;;;;;;31.48;18.65;;;;;;;16.84;47.13;100771.72;4953694;29;20085;-76
2022/10/23 02:34:10;;;;;;;78.60;22.45;;;;;;;16.78;47.39;100769.66;4953748;28;20491;-78
2022/10/23 02:36:36;;;;;;;171.40;28.48;;;;;;;16.78;47.43;100761.50;4953603;28;20514;-78
2022/10/23 02:39:02;;;;;;;140.63;25.20;;;;;;;16.56;47.54;100733.03;4953551;28;20031;-79
2022/10/23 02:41:50;;;;;;;37.97;20.17;;;;;;;16.66;47.57;100735.63;4953734;28;20023;-79
2022/10/23 02:44:34;;;;;;;236.40;29.38;;;;;;;16.81;47.61;100778.34;4953473;29;20035;-78
2022/10/23 02:47:37;;;;;;;49.05;18.52;;;;;;;16.77;47.71;100770.66;4953199;28;20042;-79
2022/10/23 02:50:02;;;;;;;51.65;17.55;;;;;;;16.76;47.69;100774.38;4953200;29;20384;-76
2022/10/23 02:52:44;;;;;;;41.95;18.42;;;;;;;16.75;47.58;100775.41;4954730;28;20089;-79
2022/10/23 02:55:30;;;;;;;34.78;20.08;;;;;;;16.81;47.16;100774.78;4964243;28;20142;-78
2022/10/23 02:58:15;;;;;;;29.02;17.23;;;;;;;16.69;47.18;100743.47;4963132;29;20039;-78
2022/10/23 03:00:45;;;;;;;31.48;16.95;;;;;;;16.81;47.10;100778.34;4954092;29;20073;-75
2022/10/23 03:03:16;;;;;;;50.35;18.88;;;;;;;16.85;47.20;100774.28;4953582;28;20430;-75
2022/10/23 03:05:43;;;;;;;41.28;17.88;;;;;;;16.88;46.94;100783.97;4953218;28;20027;-75
2022/10/23 03:08:10;;;;;;;44.17;19.33;;;;;;;16.86;47.07;100794.13;4953246;28;20167;-76
2022/10/23 03:10:36;;;;;;;30.52;15.40;;;;;;;16.91;46.81;100789.06;4952785;28;20053;-76
2022/10/23 03:13:02;;;;;;;50.22;18.58;;;;;;;16.95;46.86;100786.88;4950747;29;20488;-76
2022/10/23 03:15:27;;;;;;;36.63;13.25;;;;;;;16.73;46.70;100739.38;4952675;28;20023;-76
2022/10/23 03:17:54;;;;;;;21.77;11.10;;;;;;;16.96;47.00;100775.88;4953234;28;20046;-76
2022/10/23 03:20:19;;;;;;;25.50;10.02;;;;;;;16.99;46.75;100769.25;4952962;28;20034;-76
2022/10/23 03:22:45;;;;;;;34.13;9.48;;;;;;;16.80;46.50;100735.03;4952756;28;20388;-76
2022/10/23 03:25:10;;;;;;;27.65;10.88;;;;;;;16.86;46.35;100745.25;4952849;29;20063;-76
2022/10/23 03:27:36;;;;;;;17.77;9.23;;;;;;;16.97;46.50;100772.13;4952614;29;20059;-75
2022/10/23 03:30:03;;;;;;;20.20;8.88;;;;;;;17.05;46.50;100769.47;4952747;29;20111;-73
2022/10/23 03:32:28;;;;;;;15.63;8.15;;;;;;;17.08;46.45;100785.44;4952059;29;20114;-76
2022/10/23 03:34:54;;;;;;;27.58;8.60;;;;;;;17.07;46.45;100789.16;4952500;29;20031;-75
2022/10/23 03:37:19;;;;;;;15.13;8.32;;;;;;;17.10;46.52;100805.13;4946732;29;20039;-74
2022/10/23 03:39:45;;;;;;;22.40;8.20;;;;;;;17.12;46.16;100818.59;4943347;29;20121;-76
2022/10/23 03:42:10;;;;;;;26.13;8.02;;;;;;;17.03;46.52;100805.97;4940271;29;20050;-74
2022/10/23 03:44:36;;;;;;;17.55;8.18;;;;;;;17.06;46.23;100819.22;4942345;28;20027;-74
2022/10/23 03:47:01;;;;;;;23.60;8.27;;;;;;;17.04;46.23;100815.81;4942755;29;20091;-73
2022/10/23 03:49:27;;;;;;;30.35;10.77;;;;;;;16.85;46.37;100787.84;4941153;29;20024;-76
2022/10/23 03:51:52;;;;;;;17.50;9.35;;;;;;;16.99;46.23;100808.16;4942172;28;20036;-75
2022/10/23 03:54:20;;;;;;;19.45;9.15;;;;;;;16.82;46.66;100779.16;4934951;29;20154;-75
2022/10/23 03:56:46;;;;;;;31.35;9.50;;;;;;;16.97;46.39;100798.47;4933104;29;20086;-76
2022/10/23 03:59:11;;;;;;;34.33;10.38;;;;;;;16.98;46.40;100797.44;4932903;29;20027;-75
2022/10/23 04:01:37;;;;;;;27.40;10.02;;;;;;;16.98;46.28;100790.13;4933048;29;20138;-76
2022/10/23 04:04:02;;;;;;;23.05;10.65;;;;;;;16.97;46.55;100796.56;4932934;29;20640;-76
2022/10/23 04:06:27;;;;;;;19.65;10.35;;;;;;;16.95;46.47;100785.03;4935851;29;20090;-76
2022/10/23 04:08:53;;;;;;;20.65;10.48;;;;;;;16.97;46.67;100793.03;4938178;29;20024;-74
2022/10/23 04:11:18;;;;;;;24.00;10.73;;;;;;;16.94;46.44;100787.91;4938723;29;20443;-75
2022/10/23 04:13:44;;;;;;;32.55;11.73;;;;;;;16.92;46.77;100789.91;4933825;29;20028;-75
2022/10/23 04:16:09;;;;;;;33.25;11.07;;;;;;;16.77;47.29;100778.81;4932667;29;20499;-75
2022/10/23 04:18:35;;;;;;;21.10;11.73;;;;;;;16.81;47.08;100804.66;4932599;29;20030;-76
2022/10/23 04:21:00;;;;;;;25.77;13.27;;;;;;;16.71;47.68;100804.75;4935346;29;20718;-75
2022/10/23 04:23:25;;;;;;;24.58;14.00;;;;;;;16.63;47.73;100809.28;4932724;29;20375;-76
2022/10/23 04:25:54;;;;;;;31.60;13.13;;;;;;;16.64;47.63;100802.81;4939365;28;20406;-75
2022/10/23 04:28:19;;;;;;;24.25;13.63;;;;;;;16.62;47.89;100813.00;4931905;29;20546;-77
2022/10/23 04:30:45;;;;;;;32.08;13.27;;;;;;;16.57;48.05;100801.78;4932751;29;20024;-76
2022/10/23 04:33:10;;;;;;;29.10;12.93;;;;;;;16.53;48.06;100817.50;4932347;29;20039;-79
2022/10/23 04:35:35;;;;;;;27.88;14.63;;;;;;;16.50;48.19;100828.69;4931157;29;20043;-79
2022/10/23 04:38:01;;;;;;;30.85;14.98;;;;;;;16.48;48.08;100829.84;4932140;29;20460;-77
2022/10/23 04:40:26;;;;;;;34.25;15.98;;;;;;;16.42;48.30;100830.47;4932945;29;20032;-76
2022/10/23 04:42:52;;;;;;;26.85;15.88;;;;;;;16.39;48.09;100817.22;4932440;29;20103;-79
2022/10/23 04:45:17;;;;;;;40.33;18.55;;;;;;;16.37;48.79;100832.78;4932547;29;20031;-78
2022/10/23 04:47:42;;;;;;;54.80;18.63;;;;;;;16.27;48.75;100822.88;4932267;29;20079;-78
2022/10/23 04:50:08;;;;;;;48.58;18.52;;;;;;;16.18;49.20;100818.38;4932267;29;20035;-75
2022/10/23 04:52:33;;;;;;;43.97;18.35;;;;;;;16.03;49.13;100813.66;4932174;29;20027;-78
2022/10/23 04:54:59;;;;;;;45.38;21.08;;;;;;;16.02;49.51;100823.69;4932090;29;20040;-80
2022/10/23 04:57:24;;;;;;;52.58;17.27;;;;;;;15.98;49.51;100814.13;4932288;29;20373;-78
2022/10/23 04:59:49;;;;;;;35.58;15.80;;;;;;;16.03;49.82;100822.66;4932166;29;20062;-79
2022/10/23 05:02:15;;;;;;;37.08;16.05;;;;;;;15.84;49.86;100782.13;4930939;29;20118;-78
2022/10/23 05:04:40;;;;;;;35.92;15.18;;;;;;;15.99;49.49;100831.28;4932156;29;20030;-79
2022/10/23 05:07:06;;;;;;;45.45;15.23;;;;;;;16.04;49.37;100832.50;4932181;29;20046;-77
2022/10/23 05:09:31;;;;;;;37.42;14.40;;;;;;;16.00;49.90;100831.09;4932279;29;20550;-77
2022/10/23 05:11:56;;;;;;;35.45;15.52;;;;;;;16.00;49.69;100831.09;4932327;29;20028;-76
2022/10/23 05:14:22;;;;;;;34.13;13.80;;;;;;;16.00;49.40;100831.09;4930907;29;20036;-76
2022/10/23 05:16:53;;;;;;;25.77;14.23;;;;;;;16.10;49.23;100831.91;4932173;29;20036;-77
2022/10/23 05:19:31;;;;;;;41.50;13.95;;;;;;;16.12;49.37;100843.44;4941908;29;20062;-76
2022/10/23 05:21:57;;;;;;;42.17;13.07;;;;;;;16.21;49.65;100847.06;4951683;29;20028;-76
2022/10/23 05:24:24;;;;;;;53.80;14.18;;;;;;;16.29;49.11;100842.59;4947228;29;20020;-75
2022/10/23 05:26:51;;;;;;;34.97;11.70;;;;;;;16.36;48.91;100839.25;4932888;29;20091;-76
2022/10/23 05:29:18;;;;;;;30.85;11.05;;;;;;;16.47;48.78;100834.41;4932549;29;20115;-78
2022/10/23 05:31:44;;;;;;;29.80;11.57;;;;;;;16.52;48.84;100833.94;4932023;29;20383;-77
2022/10/23 05:34:13;;;;;;;61.67;14.10;;;;;;;16.58;48.21;100836.03;4931263;29;20023;-76
2022/10/23 05:36:38;;;;;;;29.05;9.90;;;;;;;16.74;48.31;100857.91;4931901;29;20500;-79
2022/10/23 05:39:04;;;;;;;22.67;10.90;;;;;;;16.78;48.13;100851.16;4943844;28;20114;-78
2022/10/23 05:41:30;;;;;;;35.28;11.63;;;;;;;16.88;47.89;100854.59;4953978;28;20491;-79
2022/10/23 05:43:55;;;;;;;26.35;10.25;;;;;;;16.99;48.11;100861.63;4935433;29;20043;-80
2022/10/23 05:46:22;;;;;;;17.63;9.05;;;;;;;16.99;47.84;100850.78;4953983;28;20031;-80
2022/10/23 05:48:50;;;;;;;29.17;9.68;;;;;;;17.03;47.58;100836.69;4953333;28;20082;-79
2022/10/23 05:51:20;;;;;;;40.92;11.68;;;;;;;17.15;47.70;100846.28;4953278;28;20031;-78
2022/10/23 05:53:50;;;;;;;27.70;10.43;;;;;;;17.35;47.44;100869.50;4953268;28;20031;-77
2022/10/23 05:56:16;;;;;;;39.67;10.77;;;;;;;17.41;47.32;100868.84;4953602;28;20491;-77
2022/10/23 05:58:41;;;;;;;40.65;10.45;;;;;;;17.48;47.20;100862.75;4953749;28;20043;-78
2022/10/23 06:01:09;;;;;;;31.50;9.95;;;;;;;17.61;47.14;100884.94;4953409;28;20034;-77
2022/10/23 06:03:35;;;;;;;34.53;11.45;;;;;;;17.67;47.08;100884.28;4951944;29;20411;-76
2022/10/23 06:06:01;;;;;;;40.25;12.48;;;;;;;17.65;46.89;100862.69;4953601;28;20031;-76
2022/10/23 06:08:26;;;;;;;22.80;10.55;;;;;;;17.78;46.96;100867.66;4951850;29;20418;-77
2022/10/23 06:10:52;;;;;;;49.40;11.40;;;;;;;17.69;46.72;100841.44;4953202;28;20051;-74
2022/10/23 06:13:18;;;;;;;18.00;10.23;;;;;;;17.92;46.92;100872.44;4953339;28;20462;-77
2022/10/23 06:15:43;;;;;;;38.10;11.63;;;;;;;17.94;47.06;100874.00;4952875;28;20019;-75
2022/10/23 06:18:09;;;;;;;34.42;14.25;;;;;;;18.01;47.03;100879.59;4952813;28;20483;-82
2022/10/23 06:20:36;;;;;;;40.20;12.93;;;;;;;18.07;47.16;100869.94;4953265;28;20067;-77
2022/10/23 06:23:02;;;;;;;31.67;13.30;;;;;;;18.06;47.05;100860.06;4953131;28;20035;-77
2022/10/23 06:25:27;;;;;;;31.25;13.15;;;;;;;18.19;47.19;100874.91;4952150;28;20042;-79
2022/10/23 06:27:53;;;;;;;196.70;116.07;;;;;;;18.20;47.35;100882.03;4952308;28;20122;-76
2022/10/23 06:30:18;;;;;;;29.95;13.82;;;;;;;18.23;47.40;100881.69;4954734;28;20027;-78
2022/10/23 06:32:43;;;;;;;25.27;9.95;;;;;;;18.30;47.48;100882.75;4964900;29;20509;-77
2022/10/23 06:35:09;;;;;;;27.80;9.30;;;;;;;18.19;47.60;100861.28;4961004;29;20050;-82
2022/10/23 06:37:34;;;;;;;38.92;9.00;;;;;;;18.40;47.63;100893.47;4956418;29;20515;-79
2022/10/23 06:40:00;;;;;;;68.60;11.43;;;;;;;18.42;47.96;100881.41;4952376;29;20039;-76
2022/10/23 06:42:25;;;;;;;32.75;9.07;;;;;;;18.50;48.02;100877.00;4951693;28;20031;-75
2022/10/23 06:44:50;;;;;;;25.02;8.55;;;;;;;18.53;48.04;100880.22;4951574;29;20476;-76
2022/10/23 06:47:16;;;;;;;47.53;8.15;;;;;;;18.37;48.12;100844.78;4951799;29;20091;-77
2022/10/23 06:49:41;;;;;;;25.55;7.47;;;;;;;18.64;48.46;100881.78;4950918;28;20035;-79
2022/10/23 06:52:07;;;;;;;114.30;13.15;;;;;;;18.77;48.50;100890.28;4951716;29;20032;-79
2022/10/23 06:54:32;;;;;;;167.80;15.48;;;;;;;18.75;49.05;100863.19;4951628;28;20476;-79
2022/10/23 06:56:58;;;;;;;190.52;16.88;;;;;;;18.95;49.32;100878.19;4948196;28;20134;-77
2022/10/23 06:59:23;;;;;;;77.43;11.35;;;;;;;19.08;49.43;100861.25;4940513;28;20078;-76
2022/10/23 07:01:49;;;;;;;67.90;9.90;;;;;;;19.30;49.24;100876.88;4942714;29;20477;-81
2022/10/23 07:04:14;;;;;;;159.05;15.85;;;;;;;19.42;48.87;100880.97;4944131;29;20035;-78
2022/10/23 07:06:41;;;;;;;95.20;12.52;;;;;;;19.43;48.96;100881.81;4941082;28;20034;-84
2022/10/23 07:09:07;;;;;;;180.05;19.00;;;;;;;19.60;48.66;100879.91;4942372;29;20027;-77
2022/10/23 07:11:33;;;;;;;79.07;11.85;;;;;;;19.70;48.37;100894.16;4932312;29;20036;-80
2022/10/23 07:13:58;;;;;;;81.65;11.13;;;;;;;19.75;48.43;100883.59;4931994;29;20123;-78
2022/10/23 07:16:24;;;;;;;204.43;18.65;;;;;;;19.86;48.12;100872.25;4932122;29;20462;-75
2022/10/23 07:18:59;;;;;;;99.55;12.48;;;;;;;19.98;47.82;100876.28;4932545;29;20031;-78
2022/10/23 07:21:30;;;;;;;63.90;9.70;;;;;;;20.01;47.99;100884.97;4944347;29;20027;-79
2022/10/23 07:23:57;;;;;;;153.90;15.32;;;;;;;20.12;47.72;100889.16;4951357;28;20036;-77
2022/10/23 07:26:22;;;;;;;84.13;11.60;;;;;;;20.23;47.56;100879.72;4950747;28;20035;-77
2022/10/23 07:28:50;;;;;;;76.72;13.80;;;;;;;20.30;47.22;100887.06;4951040;28;20521;-77
2022/10/23 07:31:16;;;;;;;38.88;8.30;;;;;;;20.20;47.29;100875.47;4950709;28;20303;-78
2022/10/23 07:33:42;;;;;;;1206.93;102.07;;;;;;;20.39;47.15;100877.75;4951572;28;20110;-79
2022/10/23 07:36:08;;;;;;;53.90;10.77;;;;;;;20.46;47.16;100897.84;4949474;28;20107;-78
2022/10/23 07:38:34;;;;;;;40.42;8.15;;;;;;;20.51;47.04;100876.31;4951399;28;20094;-79
2022/10/23 07:41:00;;;;;;;81.28;10.07;;;;;;;20.60;46.93;100888.00;4951447;28;20035;-77
2022/10/23 07:43:25;;;;;;;99.13;12.27;;;;;;;20.66;46.85;100892.75;4963317;28;20055;-76
2022/10/23 07:45:52;;;;;;;111.80;11.13;;;;;;;20.76;46.82;100896.09;4964614;28;20038;-78
2022/10/23 07:48:18;;;;;;;78.47;10.18;;;;;;;20.85;46.80;100899.59;4961075;28;20035;-78
2022/10/23 07:50:43;;;;;;;129.32;43.72;;;;;;;20.97;46.65;100914.53;4951458;28;20385;-77
2022/10/23 07:53:23;;;;;;;75.85;10.48;;;;;;;21.06;46.60;100907.94;4950678;28;20035;-76
2022/10/23 07:56:13;;;;;;;65.88;11.88;;;;;;;21.23;46.33;100920.44;4950569;28;20071;-78
2022/10/23 07:58:39;;;;;;;40.85;8.32;;;;;;;21.27;46.41;100924.50;4909723;29;20056;-78
2022/10/23 08:01:15;;;;;;;23.83;7.65;;;;;;;21.32;46.52;100922.03;4909693;29;20051;-81
2022/10/23 08:03:41;;;;;;;39.40;9.45;;;;;;;21.44;46.54;100922.44;4909658;29;20132;-82
2022/10/23 08:06:06;;;;;;;41.85;8.77;;;;;;;21.64;46.43;100949.06;4910786;29;20483;-81
2022/10/23 08:08:32;;;;;;;65.20;9.15;;;;;;;21.82;46.19;100945.09;4910857;29;20496;-83
2022/10/23 08:10:57;;;;;;;85.95;9.88;;;;;;;21.77;45.92;100906.50;4910232;29;20044;-80
2022/10/23 08:13:22;;;;;;;122.13;12.45;;;;;;;21.94;45.42;100921.69;4909817;29;20043;-82
2022/10/23 08:15:49;;;;;;;86.45;10.48;;;;;;;22.08;45.57;100934.50;4879797;29;20039;-85
2022/10/23 08:18:16;;;;;;;177.27;17.95;;;;;;;22.12;45.07;100930.34;4911239;29;20046;-83
2022/10/23 08:20:43;;;;;;;43.00;7.63;;;;;;;22.13;45.12;100926.56;4910288;29;20067;-80
2022/10/23 08:23:11;;;;;;;91.15;10.77;;;;;;;22.07;45.16;100911.75;4909050;29;20633;-80
2022/10/23 08:25:36;;;;;;;43.67;7.90;;;;;;;22.32;44.51;100938.81;4909216;29;20028;-79
2022/10/23 08:28:02;;;;;;;57.20;8.00;;;;;;;22.40;44.61;100946.91;4893464;29;20099;-83
2022/10/23 08:30:27;;;;;;;27.65;6.82;;;;;;;22.50;44.82;100956.53;4909551;29;20115;-80
2022/10/23 08:32:53;;;;;;;142.88;13.32;;;;;;;22.58;44.52;100948.16;4910029;29;20099;-81
2022/10/23 08:35:18;;;;;;;21.92;6.45;;;;;;;22.68;44.22;100953.38;4924116;29;20039;-79
2022/10/23 08:37:44;;;;;;;19.52;8.23;;;;;;;22.60;43.71;100929.63;4950746;29;20110;-79
2022/10/23 08:40:18;;;;;;;21.65;6.05;;;;;;;22.86;43.34;100952.91;4950352;29;20038;-78
2022/10/23 08:42:51;;;;;;;58.95;8.52;;;;;;;22.88;43.19;100954.41;4949855;28;20765;-77
2022/10/23 08:45:32;;;;;;;250.95;22.38;;;;;;;22.99;42.23;100953.03;4950105;29;20039;-78
2022/10/23 08:48:05;;;;;;;28.52;6.90;;;;;;;23.05;42.28;100955.84;4949574;28;20031;-77
2022/10/23 08:50:44;;;;;;;216.05;19.08;;;;;;;22.98;42.34;100927.50;4949311;28;20495;-78
2022/10/23 08:53:32;;;;;;;58.50;8.00;;;;;;;23.10;42.17;100936.03;4955004;28;20142;-79
2022/10/23 08:56:03;;;;;;;20.83;5.43;;;;;;;23.13;42.35;100947.47;4969733;28;20027;-78
2022/10/23 08:58:46;;;;;;;51.95;7.80;;;;;;;23.15;42.25;100949.97;4973598;28;20094;-77
2022/10/23 09:01:38;;;;;;;38.63;7.68;;;;;;;23.26;42.17;100958.53;4934336;29;20472;-78
2022/10/23 09:04:05;;;;;;;49.03;8.10;;;;;;;23.35;42.58;100962.00;4952737;29;20030;-84
2022/10/23 09:06:42;;;;;;;20.83;6.97;;;;;;;23.52;41.71;100968.88;4956232;28;20031;-82
2022/10/23 09:09:23;;;;;;;40.10;6.68;;;;;;;23.59;41.74;100977.19;4955999;29;20023;-77
2022/10/23 09:12:16;;;;;;;46.33;7.43;;;;;;;23.60;41.26;100982.50;4952659;29;20063;-82
2022/10/23 09:14:47;;;;;;;89.15;8.95;;;;;;;23.61;41.59;100972.31;4913036;29;20048;-82
2022/10/23 09:17:23;;;;;;;28.33;7.07;;;;;;;23.58;41.69;100962.59;4912676;29;20123;-79
2022/10/23 09:19:58;;;;;;;29.85;7.18;;;;;;;23.75;41.67;100980.47;4913011;29;20066;-76
2022/10/23 09:22:23;;;;;;;410.08;38.95;;;;;;;23.70;41.37;100963.72;4912350;29;20091;-77
2022/10/23 09:24:48;;;;;;;71.88;9.25;;;;;;;23.83;40.98;100966.56;4912467;29;20398;-79
2022/10/23 09:27:16;;;;;;;27.25;6.20;;;;;;;23.88;40.89;100967.88;4912605;29;20044;-77
2022/10/23 09:29:49;;;;;;;29.77;6.28;;;;;;;23.77;40.76;100948.16;4912512;29;20039;-78
2022/10/23 09:32:15;;;;;;;41.60;15.13;;;;;;;23.97;40.83;100988.63;4880910;29;20048;-78
2022/10/23 09:34:52;;;;;;;43.67;8.05;;;;;;;24.04;40.68;100992.22;4912346;29;20532;-76
2022/10/23 09:37:24;;;;;;;61.53;7.93;;;;;;;24.06;40.66;100987.41;4912033;29;20050;-78
2022/10/23 09:40:14;;;;;;;27.38;6.10;;;;;;;24.08;40.65;101001.78;4912574;29;20042;-79
2022/10/23 09:43:03;;;;;;;43.20;8.70;;;;;;;24.13;40.76;101010.28;4911932;29;20127;-78
2022/10/23 09:45:33;;;;;;;39.58;7.72;;;;;;;24.17;40.66;101017.09;4912692;29;20040;-78
2022/10/23 09:48:17;;;;;;;28.65;6.30;;;;;;;24.23;40.26;101016.25;4912383;29;20052;-78
2022/10/23 09:51:03;;;;;;;14.43;5.40;;;;;;;24.23;39.88;100997.03;4919973;29;20047;-79
2022/10/23 09:53:29;;;;;;;38.72;6.57;;;;;;;24.39;40.16;101010.44;4953598;28;20593;-78
2022/10/23 09:55:59;;;;;;;25.35;6.45;;;;;;;24.43;40.10;100994.38;4953423;29;20038;-80
2022/10/23 09:58:34;;;;;;;23.17;5.88;;;;;;;24.56;39.90;100994.38;4953693;29;20098;-81
2022/10/23 10:01:01;;;;;;;22.30;6.07;;;;;;;24.49;39.70;100975.16;4954690;28;20031;-76
2022/10/23 10:03:26;;;;;;;19.73;5.55;;;;;;;24.70;39.49;101005.25;4953532;28;20150;-76
2022/10/23 10:06:00;;;;;;;23.75;6.55;;;;;;;24.58;39.39;100970.28;4964323;28;20075;-79
2022/10/23 10:08:49;;;;;;;20.67;6.22;;;;;;;24.86;39.10;101007.63;4971215;28;20031;-75
2022/10/23 10:11:42;;;;;;;17.55;5.72;;;;;;;24.89;38.84;101007.22;4968616;29;20030;-80
2022/10/23 10:14:26;;;;;;;18.55;5.05;;;;;;;24.95;38.76;101010.19;4953433;29;20031;-79
2022/10/23 10:17:01;;;;;;;10.65;4.47;;;;;;;24.77;38.69;100981.31;4953215;28;20628;-81
2022/10/23 10:19:39;;;;;;;14.05;5.32;;;;;;;25.04;38.87;101007.03;4953106;29;20491;-78
2022/10/23 10:22:21;;;;;;;10.75;4.97;;;;;;;25.13;38.76;101002.19;4954428;28;20475;-79
2022/10/23 10:24:51;;;;;;;;;;;;;;;25.31;38.15;101006.00;4948472;28;20027;-83
2022/10/23 10:27:26;;;;;;;12.77;5.07;;;;;;;25.45;38.02;101004.06;4935098;29;19925;-81
2022/10/23 10:30:09;;;;;;;38.78;6.13;;;;;;;25.58;37.96;100981.22;4936700;29;20566;-82
2022/10/23 10:32:56;;;;;;;22.27;6.25;;;;;;;25.73;37.51;100988.19;4934929;29;20031;-80
2022/10/23 10:35:47;;;;;;;25.45;5.28;;;;;;;25.85;37.23;100991.97;4934991;29;20028;-82
2022/10/23 10:38:30;;;;;;;28.80;5.05;;;;;;;25.99;36.84;100999.13;4912759;29;20055;-81
2022/10/23 10:40:56;;;;;;;10.55;4.30;;;;;;;26.07;36.85;101005.50;4913363;29;20040;-82
2022/10/23 10:43:31;;;;;;;19.02;6.32;;;;;;;26.07;36.67;101011.00;4913065;29;20115;-79
2022/10/23 10:46:28;;;;;;;33.33;6.07;;;;;;;26.02;36.79;100997.03;4912867;29;20045;-81
2022/10/23 10:49:00;;;;;;;22.65;5.22;;;;;;;25.99;36.39;101003.84;4912659;29;20099;-81
2022/10/23 10:51:29;;;;;;;32.97;5.75;;;;;;;25.90;36.91;101010.63;4912351;29;20040;-81
2022/10/23 10:54:06;;;;;;;39.17;6.15;;;;;;;25.93;36.77;101000.00;4911954;29;20111;-81
2022/10/23 10:56:37;;;;;;;40.90;7.22;;;;;;;25.90;36.48;101005.94;4909233;29;20069;-83
2022/10/23 10:59:14;;;;;;;9.63;4.25;;;;;;;25.91;36.56;100996.63;4912580;29;20060;-82
2022/10/23 11:01:58;;;;;;;30.75;5.75;;;;;;;25.95;36.39;100991.53;4913712;29;20075;-83
2022/10/23 11:04:44;;;;;;;125.97;9.57;;;;;;;26.07;36.19;100997.22;4914690;29;20040;-80
2022/10/23 11:07:13;;;;;;;13.60;4.05;;;;;;;26.16;36.04;100987.69;4913955;29;20032;-81
2022/10/23 11:09:41;;;;;;;15.27;4.30;;;;;;;26.20;35.65;100987.03;4916375;29;20135;-83
2022/10/23 11:12:15;;;;;;;49.60;7.82;;;;;;;26.24;35.42;100988.28;4917746;29;20035;-82
2022/10/23 11:14:41;;;;;;;17.35;4.43;;;;;;;26.27;35.16;100981.47;4920004;29;20067;-82
2022/10/23 11:17:15;;;;;;;21.83;4.40;;;;;;;26.32;35.52;100981.69;4942847;29;20073;-79
2022/10/23 11:19:56;;;;;;;13.75;3.97;;;;;;;26.44;34.95;100986.28;4955286;29;20040;-79
2022/10/23 11:22:34;;;;;;;167.25;14.75;;;;;;;26.53;35.13;100984.13;4955729;29;20024;-81
2022/10/23 11:25:31;;;;;;;32.92;5.00;;;;;;;26.72;34.81;100985.94;4934977;29;20065;-81